Flight Track Log - Related Links

Times and Time Zones

All times are in EDT time to prevent confusion due to time zone crossing. See the FLG3735 flight status page for this flight to view local times or setup timezone preferences in your user account.

Time Position Orientation Groundspeed Altitude Reporting Facility
EDT Latitude Longitude Course Direction KTS MPH feet Rate Location/Type
Thu 09:49:19 PM 42.2036 -83.3556 90° East 151 174 1,200  Level Cleveland Center
Thu 09:49:43 PM 42.1869 -83.3547 178° South 165 190 2,200 2,429 Climbing Cleveland Center
Thu 09:50:43 PM 42.1289 -83.3494 176° South 214 246 4,600 2,315 Climbing Cleveland Center
Thu 09:51:50 PM 42.0975 -83.2586 115° Southeast 280 322 7,100 2,245 Climbing Cleveland Center
Thu 09:52:00 PM 42.3177 -82.7392 82° East  Level FlightAware Approximate
Thu 09:53:00 PM 42.3335 -82.5826 71° East  Level FlightAware Approximate
Thu 09:53:26 PM 42.1467 -83.1150 65° Northeast 292 336 10,700  Level Cleveland Center
Thu 09:54:00 PM 42.3667 -82.4351 90° East  Level FlightAware Approximate
Thu 09:54:27 PM 42.1867 -82.9989 65° Northeast 316 364 12,100  Level Cleveland Center
Thu 09:55:26 PM 42.2289 -82.8742 65° Northeast 340 391 13,900 958 Climbing Cleveland Center
Thu 09:56:26 PM 42.2731 -82.7411 66° East 368 423 14,000 150 Climbing Cleveland Center
Thu 09:57:26 PM 42.3217 -82.5967 65° Northeast 397 457 14,200 1,450 Climbing Cleveland Center
Thu 09:58:26 PM 42.3636 -82.4575 68° East 402 463 16,900 2,132 Climbing Cleveland Center
Thu 09:59:27 PM 42.3617 -82.3086 91° East 388 447 18,500 1,550 Climbing Cleveland Center
Thu 10:00:26 PM 42.3558 -82.1511 93° East 400 460 20,000 1,400 Climbing Cleveland Center
Thu 10:01:27 PM 42.3475 -81.9767 94° East 412 474 21,300 1,300 Climbing Cleveland Center
Thu 10:02:26 PM 42.3389 -81.8164 94° East 429 494 22,600 1,210 Climbing Cleveland Center
Thu 10:03:26 PM 42.3344 -81.6506 92° East 429 494 23,700 1,000 Climbing Cleveland Center
Thu 10:04:26 PM 42.3275 -81.4847 93° East 441 507 24,600 850 Climbing Cleveland Center
Thu 10:05:26 PM 42.3203 -81.3133 93° East 447 514 25,400 750 Climbing Cleveland Center
Thu 10:06:26 PM 42.3108 -81.1419 94° East 455 524 26,100 650 Climbing Cleveland Center
Thu 10:07:26 PM 42.3011 -80.9650 94° East 468 539 26,700 595 Climbing Cleveland Center
Thu 10:08:27 PM 42.2933 -80.8106 94° East 468 539 27,300 595 Climbing Cleveland Center
Thu 10:09:27 PM 42.2831 -80.6336 94° East 473 544 27,900 454 Climbing Cleveland Center
Thu 10:10:26 PM 42.2725 -80.4372 94° East 468 539 28,200 555 Climbing Cleveland Center
Thu 10:11:26 PM 42.2639 -80.2803 94° East 478 550 29,000 397 Climbing Cleveland Center
Thu 10:12:27 PM 42.2508 -80.1006 96° East 478 550 29,000  Level Cleveland Center
Thu 10:13:26 PM 42.2394 -79.9214 95° East 478 550 29,000  Level Cleveland Center
Thu 10:14:26 PM 42.2300 -79.7364 94° East 478 550 29,000  Level Cleveland Center
Thu 10:15:26 PM 42.2200 -79.5486 94° East 483 556 29,000  Level Cleveland Center
Thu 10:16:26 PM 42.2058 -79.3611 96° East 495 570 29,000  Level Cleveland Center
Thu 10:17:26 PM 42.1931 -79.1736 95° East 501 577 29,000  Level Cleveland Center
Thu 10:18:26 PM 42.2075 -78.9881 84° East 495 570 29,000  Level Cleveland Center
Thu 10:19:26 PM 42.2317 -78.7914 81° East 481 554 29,000  Level Cleveland Center
Thu 10:20:26 PM 42.2558 -78.6111 80° East 481 554 29,000  Level Cleveland Center
Thu 10:21:26 PM 42.2775 -78.4308 81° East 486 559 29,000  Level Cleveland Center
Thu 10:22:27 PM 42.2992 -78.2503 81° East 486 559 29,000  Level Cleveland Center
Thu 10:23:27 PM 42.3203 -78.0725 81° East 486 559 29,000  Level Cleveland Center
Thu 10:24:26 PM 42.3433 -77.8919 80° East 486 559 29,000  Level Cleveland Center
Thu 10:25:26 PM 42.3642 -77.7139 81° East 486 559 29,000  Level Cleveland Center
Thu 10:26:26 PM 42.3828 -77.5500 81° East 486 559 29,000  Level Cleveland Center
Thu 10:28:28 PM 42.4219 -77.1886 82° East 492 566 29,000  Level Boston Center
Thu 10:29:28 PM 42.4417 -77.0100 81° East 492 566 29,000  Level Boston Center
Thu 10:30:28 PM 42.4614 -76.8283 82° East 487 560 29,000 -200 Level Boston Center
Thu 10:32:00 PM 42.4772 -76.6044 84° East  Level FlightAware Approximate
Thu 10:34:28 PM 42.5419 -76.0842 79° East 486 559 28,000  Level Boston Center
Thu 10:35:28 PM 42.5581 -75.9017 83° East 486 559 26,400 -1,550 Descending Boston Center
Thu 10:36:28 PM 42.5614 -75.7214 89° East 486 559 24,900 -1,425 Descending Boston Center
Thu 10:38:00 PM 42.5931 -75.4988 79° East  Level FlightAware Approximate
Thu 10:39:00 PM 42.5940 -75.4921 79° East  Level FlightAware Approximate
Thu 10:39:28 PM 42.5350 -75.2269 79° East 429 494 20,700  Level Boston Center
Thu 10:40:28 PM 42.5322 -75.0886 92° East 396 456 18,700 -1,850 Descending Boston Center
Thu 10:41:28 PM 42.5247 -74.9558 94° East 368 423 17,000 -1,850 Descending Boston Center
Thu 10:42:28 PM 42.5211 -74.8261 92° East 349 402 15,000 -2,028 Descending Boston Center
Thu 10:43:50 PM 42.5100 -74.6539 95° East 316 364 12,200 -1,950 Descending Boston Center
Thu 10:44:28 PM 42.5053 -74.5833 95° East 324 373 11,100 -932 Descending Boston Center
Thu 10:45:33 PM 42.5033 -74.4622 91° East 296 341 10,600 -1,000 Descending Boston Center
Thu 10:46:28 PM 42.5114 -74.3611 84° East 298 343 9,100 -1,537 Descending Boston Center
Thu 10:47:34 PM 42.5194 -74.2431 85° East 292 336 7,500 -1,500 Descending Boston Center
Thu 10:48:28 PM 42.5272 -74.1417 84° East 288 331 6,100 -1,421 Descending Boston Center
Thu 10:49:28 PM 42.5328 -74.0517 85° East 283 326 4,800 -1,050 Descending Boston Center
Thu 10:50:28 PM 42.5425 -73.9450 83° East 265 305 4,000 -465 Descending Boston Center
Thu 10:51:37 PM 42.5397 -73.8461 92° East 214 246 3,800 -500 Descending Boston Center
Thu 10:52:28 PM 42.5611 -73.7986 59° Northeast 175 201 3,000 -941 Descending Boston Center

Login

Don't have an account? Register now (free) for customized features, flight alerts, and more!